createdAt,value
2023-04-12T00:00:12.224Z,39.70
2023-04-12T00:05:06.170Z,39.60
2023-04-12T00:07:32.710Z,39.40
2023-04-12T00:09:59.236Z,39.50
2023-04-12T00:12:25.742Z,39.50
2023-04-12T00:14:52.234Z,39.80
2023-04-12T00:17:18.735Z,39.50
2023-04-12T00:19:45.268Z,39.40
2023-04-12T00:22:11.804Z,39.60
2023-04-12T00:24:38.281Z,39.70
2023-04-12T00:27:04.747Z,39.40
2023-04-12T00:29:31.210Z,39.60
2023-04-12T00:31:57.681Z,39.40
2023-04-12T00:36:51.144Z,39.60
2023-04-12T00:39:17.602Z,39.10
2023-04-12T00:41:44.135Z,39.50
2023-04-12T00:44:10.647Z,39.30
2023-04-12T00:46:37.163Z,39.70
2023-04-12T00:49:03.716Z,39.70
2023-04-12T00:51:30.175Z,39.40
2023-04-12T00:53:56.817Z,40.00
2023-04-12T00:56:23.419Z,39.40
2023-04-12T00:58:49.937Z,39.60
2023-04-12T01:01:16.592Z,39.90
2023-04-12T01:06:10.425Z,39.20
2023-04-12T01:08:36.951Z,39.40
2023-04-12T01:11:03.412Z,39.30
2023-04-12T01:13:29.898Z,39.50
2023-04-12T01:15:56.438Z,39.90
2023-04-12T01:18:22.956Z,39.30
2023-04-12T01:20:49.479Z,39.40
2023-04-12T01:25:42.969Z,39.40
2023-04-12T01:28:09.428Z,40.10
2023-04-12T01:30:35.907Z,39.50
2023-04-12T01:33:02.492Z,39.60
2023-04-12T01:35:29.113Z,40.10
2023-04-12T01:37:55.739Z,39.50
2023-04-12T01:40:22.245Z,39.40
2023-04-12T01:42:48.783Z,39.40
2023-04-12T01:45:15.273Z,39.60
2023-04-12T01:47:41.823Z,39.60
2023-04-12T01:50:08.310Z,39.40
2023-04-12T01:52:34.847Z,39.30
2023-04-12T01:57:28.320Z,39.60
2023-04-12T01:59:54.837Z,39.50
2023-04-12T02:02:21.407Z,39.70
2023-04-12T02:04:47.997Z,39.50
2023-04-12T02:07:14.555Z,39.50
2023-04-12T02:09:41.062Z,39.20
2023-04-12T02:12:07.704Z,39.50
2023-04-12T02:14:34.410Z,39.50
2023-04-12T02:17:01.006Z,39.60
2023-04-12T02:19:27.729Z,39.70
2023-04-12T02:21:54.234Z,40.10
2023-04-12T02:24:20.722Z,39.70
2023-04-12T02:26:47.223Z,39.50
2023-04-12T02:29:13.713Z,39.80
2023-04-12T02:31:40.205Z,39.60
2023-04-12T02:34:06.694Z,39.70
2023-04-12T02:39:00.283Z,39.50
2023-04-12T02:41:26.743Z,39.40
2023-04-12T02:43:53.242Z,40.10
2023-04-12T02:46:19.820Z,39.60
2023-04-12T02:48:46.611Z,40.20
2023-04-12T02:51:13.068Z,39.80
2023-04-12T02:56:06.754Z,39.70
2023-04-12T02:58:33.310Z,39.60
2023-04-12T03:00:59.834Z,39.70
2023-04-12T03:03:26.489Z,39.70
2023-04-12T03:05:53.041Z,39.70
2023-04-12T03:08:19.567Z,39.70
2023-04-12T03:10:46.084Z,39.30
2023-04-12T03:13:12.555Z,39.20
2023-04-12T03:15:39.026Z,39.50
2023-04-12T03:18:05.573Z,39.40
2023-04-12T03:20:32.123Z,39.50
2023-04-12T03:22:58.598Z,40.00
2023-04-12T03:25:25.076Z,39.50
2023-04-12T03:27:51.547Z,39.60
2023-04-12T03:30:18.067Z,39.60
2023-04-12T03:32:44.576Z,39.30
2023-04-12T03:35:11.058Z,39.50
2023-04-12T03:37:37.528Z,39.70
2023-04-12T03:40:03.994Z,39.60
2023-04-12T03:42:33.429Z,39.70
2023-04-12T03:45:00.493Z,40.00
2023-04-12T03:47:27.004Z,39.80
2023-04-12T03:50:09.620Z,39.50
2023-04-12T03:52:37.235Z,40.00
2023-04-12T03:55:03.703Z,39.60
2023-04-12T03:57:30.226Z,39.70
2023-04-12T03:59:56.685Z,39.60
2023-04-12T04:02:23.306Z,39.50
2023-04-12T04:04:49.869Z,39.60
2023-04-12T04:07:16.445Z,39.70
2023-04-12T04:09:42.930Z,39.50
2023-04-12T04:12:09.429Z,39.30
2023-04-12T04:14:35.980Z,39.50
2023-04-12T04:17:02.476Z,39.50
2023-04-12T04:19:28.970Z,39.90
2023-04-12T04:21:55.456Z,39.40
2023-04-12T04:24:21.985Z,39.60
2023-04-12T04:26:48.454Z,39.50
2023-04-12T04:31:42.113Z,39.70
2023-04-12T04:34:09.189Z,39.60
2023-04-12T04:36:36.677Z,39.80
2023-04-12T04:39:03.190Z,39.70
2023-04-12T04:41:29.722Z,39.50
2023-04-12T04:43:56.441Z,39.80
2023-04-12T04:46:23.152Z,39.60
2023-04-12T04:51:16.640Z,40.30
2023-04-12T04:53:43.125Z,40.20
2023-04-12T04:56:09.665Z,40.50
2023-04-12T04:58:36.178Z,40.70
2023-04-12T05:01:02.697Z,40.70
2023-04-12T05:03:30.733Z,40.40
2023-04-12T05:05:57.557Z,40.40
2023-04-12T05:08:24.031Z,40.50
2023-04-12T05:10:50.546Z,40.60
2023-04-12T05:13:17.022Z,40.50
2023-04-12T05:15:43.515Z,40.60
2023-04-12T05:18:10.112Z,40.90
2023-04-12T05:20:36.589Z,40.80
2023-04-12T05:23:03.078Z,41.00
2023-04-12T05:25:29.621Z,40.60
2023-04-12T05:27:56.139Z,41.00
2023-04-12T05:30:22.658Z,40.30
2023-04-12T05:32:49.237Z,40.50
2023-04-12T05:35:15.791Z,40.50
2023-04-12T05:37:42.339Z,40.60
2023-04-12T05:40:08.848Z,41.00
2023-04-12T05:42:35.337Z,40.50
2023-04-12T05:45:01.829Z,40.50
2023-04-12T05:47:28.447Z,40.80
2023-04-12T05:52:22.077Z,40.20
2023-04-12T05:54:48.526Z,40.80
2023-04-12T05:57:14.980Z,40.40
2023-04-12T05:59:41.500Z,40.30
2023-04-12T06:02:08.051Z,40.30
2023-04-12T06:04:48.806Z,40.60
2023-04-12T06:07:16.401Z,40.40
2023-04-12T06:09:42.853Z,40.50
2023-04-12T06:12:09.309Z,40.10
2023-04-12T06:14:35.766Z,41.00
2023-04-12T06:17:02.291Z,41.50
2023-04-12T06:19:28.790Z,40.30
2023-04-12T06:21:55.408Z,41.30
2023-04-12T06:24:21.966Z,41.40
2023-04-12T06:26:48.433Z,41.20
2023-04-12T06:29:14.953Z,40.90
2023-04-12T06:31:41.573Z,40.90
2023-04-12T06:34:08.122Z,41.30
2023-04-12T06:36:34.567Z,40.80
2023-04-12T06:39:01.061Z,40.90
2023-04-12T06:41:27.548Z,41.40
2023-04-12T06:43:54.056Z,40.60
2023-04-12T06:46:20.609Z,40.70
2023-04-12T06:48:47.123Z,40.60
2023-04-12T06:51:13.841Z,41.00
2023-04-12T06:53:40.332Z,40.60
2023-04-12T06:56:06.857Z,41.10
2023-04-12T06:58:33.346Z,41.10
2023-04-12T07:00:59.928Z,40.50
2023-04-12T07:03:26.518Z,40.50
2023-04-12T07:05:53.042Z,40.60
2023-04-12T07:08:19.531Z,41.00
2023-04-12T07:10:46.045Z,41.00
2023-04-12T07:13:12.554Z,41.00
2023-04-12T07:15:39.066Z,40.90
2023-04-12T07:18:05.578Z,40.90
2023-04-12T07:20:32.102Z,40.70
2023-04-12T07:22:58.590Z,40.50
2023-04-12T07:25:25.265Z,40.70
2023-04-12T07:27:51.991Z,40.70
2023-04-12T07:30:18.650Z,40.70
2023-04-12T07:32:45.255Z,41.10
2023-04-12T07:35:11.781Z,40.90
2023-04-12T07:37:38.291Z,41.20
2023-04-12T07:40:04.765Z,40.70
2023-04-12T07:42:31.243Z,40.90
2023-04-12T07:44:57.710Z,40.60
2023-04-12T07:47:24.222Z,40.50
2023-04-12T07:49:50.722Z,40.70
2023-04-12T07:52:17.232Z,41.10
2023-04-12T07:54:43.760Z,41.10
2023-04-12T07:57:10.316Z,41.10
2023-04-12T07:59:36.828Z,40.50
2023-04-12T08:02:03.535Z,40.60
2023-04-12T08:04:30.212Z,41.10
2023-04-12T08:06:56.726Z,40.80
2023-04-12T08:09:23.215Z,41.10
2023-04-12T08:11:49.696Z,40.90
2023-04-12T08:14:16.198Z,40.60
2023-04-12T08:16:42.661Z,41.10
2023-04-12T08:19:09.113Z,40.70
2023-04-12T08:21:35.606Z,40.50
2023-04-12T08:24:02.085Z,41.10
2023-04-12T08:26:28.557Z,40.90
2023-04-12T08:28:55.029Z,40.70
2023-04-12T08:31:21.581Z,41.10
2023-04-12T08:33:48.100Z,41.20
2023-04-12T08:36:14.661Z,41.80
2023-04-12T08:38:45.476Z,41.30
2023-04-12T08:41:13.842Z,43.30
2023-04-12T08:43:40.845Z,40.80
2023-04-12T08:46:07.415Z,40.70
2023-04-12T08:48:34.083Z,40.90
2023-04-12T08:51:00.670Z,41.20
2023-04-12T08:53:27.168Z,41.00
2023-04-12T08:58:49.411Z,41.20
2023-04-12T09:01:22.572Z,41.20
2023-04-12T09:04:01.328Z,40.70
2023-04-12T09:06:37.668Z,41.30
2023-04-12T09:09:53.898Z,41.30
2023-04-12T09:12:15.263Z,40.90
2023-04-12T09:14:55.853Z,41.30
2023-04-12T09:20:14.449Z,41.30
2023-04-12T09:25:25.073Z,41.30
2023-04-12T09:30:54.419Z,41.10
2023-04-12T09:33:21.005Z,41.20
2023-04-12T09:35:47.673Z,41.30
2023-04-12T09:38:14.361Z,41.40
2023-04-12T09:40:40.862Z,40.80
2023-04-12T09:45:51.423Z,40.90
2023-04-12T09:51:02.140Z,41.40
2023-04-12T09:53:28.662Z,41.00
2023-04-12T09:55:55.168Z,41.50
2023-04-12T09:58:21.642Z,41.70
2023-04-12T10:00:48.133Z,41.10
2023-04-12T10:03:14.828Z,41.10
2023-04-12T10:05:41.520Z,41.60
2023-04-12T10:08:08.073Z,41.60
2023-04-12T10:10:34.569Z,41.00
2023-04-12T10:15:45.132Z,41.70
2023-04-12T10:18:11.724Z,41.40
2023-04-12T10:20:38.260Z,41.70
2023-04-12T10:23:04.751Z,41.20
2023-04-12T10:25:31.379Z,41.60
2023-04-12T10:27:57.918Z,41.20
2023-04-12T10:33:24.676Z,41.20
2023-04-12T10:35:51.265Z,41.30
2023-04-12T10:38:17.791Z,41.50
2023-04-12T10:40:44.294Z,42.00
2023-04-12T10:43:10.742Z,41.50
2023-04-12T10:45:37.253Z,41.70
2023-04-12T10:50:54.209Z,42.10
2023-04-12T10:53:20.759Z,41.60
2023-04-12T10:55:47.288Z,42.20
2023-04-12T10:58:13.838Z,41.60
2023-04-12T11:00:40.428Z,42.60
2023-04-12T11:03:07.203Z,41.70
2023-04-12T11:08:17.950Z,42.20
2023-04-12T11:13:28.504Z,42.10
2023-04-12T11:15:55.017Z,42.10
2023-04-12T11:18:21.590Z,42.10
2023-04-12T11:20:48.179Z,41.70
2023-04-12T11:23:14.696Z,41.20
2023-04-12T11:25:41.271Z,41.60
2023-04-12T11:28:21.226Z,42.10
2023-04-12T11:30:54.198Z,42.30
2023-04-12T11:33:20.695Z,41.50
2023-04-12T11:35:47.247Z,41.70
2023-04-12T11:38:13.721Z,41.80
2023-04-12T11:40:40.237Z,42.00
2023-04-12T11:43:06.689Z,42.00
2023-04-12T11:45:33.145Z,41.50
2023-04-12T11:47:59.673Z,42.10
2023-04-12T11:50:26.158Z,41.60
2023-04-12T11:52:52.628Z,41.60
2023-04-12T11:55:19.098Z,42.00
2023-04-12T11:57:45.623Z,41.90
2023-04-12T12:00:12.084Z,41.70
2023-04-12T12:02:46.516Z,41.40
2023-04-12T12:05:22.903Z,42.00
2023-04-12T12:07:49.553Z,41.60
2023-04-12T12:10:27.554Z,41.60
2023-04-12T12:12:59.260Z,41.60
2023-04-12T12:15:25.775Z,41.60
2023-04-12T12:17:52.405Z,41.90
2023-04-12T12:20:18.997Z,41.90
2023-04-12T12:22:45.509Z,41.90
2023-04-12T12:25:12.022Z,41.50
2023-04-12T12:27:38.550Z,41.90
2023-04-12T12:30:05.080Z,41.80
2023-04-12T12:32:31.701Z,41.60
2023-04-12T12:34:58.223Z,41.90
2023-04-12T12:37:24.764Z,41.40
2023-04-12T12:39:51.259Z,42.00
2023-04-12T12:42:17.760Z,41.70
2023-04-12T12:44:44.273Z,42.10
2023-04-12T12:49:41.248Z,41.40
2023-04-12T12:52:07.747Z,41.60
2023-04-12T12:54:41.233Z,42.00
2023-04-12T12:57:08.344Z,42.00
2023-04-12T12:59:34.835Z,41.40
2023-04-12T13:02:01.392Z,41.60
2023-04-12T13:04:28.230Z,42.00
2023-04-12T13:06:54.838Z,41.50
2023-04-12T13:09:21.373Z,41.40
2023-04-12T13:14:14.847Z,41.50
2023-04-12T13:16:41.381Z,41.80
2023-04-12T13:19:07.903Z,41.20
2023-04-12T13:21:34.444Z,41.60
2023-04-12T13:24:00.984Z,41.40
2023-04-12T13:26:27.511Z,41.50
2023-04-12T13:28:54.042Z,41.60
2023-04-12T13:31:20.548Z,41.60
2023-04-12T13:33:47.168Z,42.00
2023-04-12T13:36:13.693Z,41.60
2023-04-12T13:38:40.230Z,41.60
2023-04-12T13:41:06.742Z,41.50
2023-04-12T13:46:00.322Z,41.50
2023-04-12T13:48:26.871Z,41.50
2023-04-12T13:50:55.400Z,42.60
2023-04-12T13:53:22.126Z,41.70
2023-04-12T13:55:48.673Z,41.70
2023-04-12T13:58:15.180Z,42.10
2023-04-12T14:00:41.702Z,42.00
2023-04-12T14:03:08.371Z,41.60
2023-04-12T14:05:35.026Z,42.10
2023-04-12T14:08:01.496Z,42.00
2023-04-12T14:10:28.010Z,42.10
2023-04-12T14:12:54.507Z,41.60
2023-04-12T14:15:20.999Z,41.70
2023-04-12T14:17:47.665Z,41.70
2023-04-12T14:20:14.817Z,41.50
2023-04-12T14:22:42.554Z,41.80
2023-04-12T14:25:09.034Z,41.90
2023-04-12T14:27:35.523Z,41.60
2023-04-12T14:30:02.034Z,42.10
2023-04-12T14:32:28.623Z,41.70
2023-04-12T14:34:55.109Z,42.10
2023-04-12T14:37:21.633Z,42.10
2023-04-12T14:39:48.127Z,42.10
2023-04-12T14:42:14.619Z,41.50
2023-04-12T14:44:41.154Z,41.80
2023-04-12T14:47:07.629Z,42.10
2023-04-12T14:49:34.121Z,42.20
2023-04-12T14:52:00.627Z,41.70
2023-04-12T14:54:27.170Z,42.00
2023-04-12T14:56:55.502Z,42.30
2023-04-12T14:59:22.771Z,42.20
2023-04-12T15:01:49.481Z,42.90
2023-04-12T15:04:16.451Z,42.10
2023-04-12T15:06:43.172Z,42.10
2023-04-12T15:09:09.687Z,42.00
2023-04-12T15:11:36.168Z,42.10
2023-04-12T15:14:02.686Z,42.70
2023-04-12T15:16:29.230Z,42.60
2023-04-12T15:18:56.201Z,42.60
2023-04-12T15:21:23.204Z,42.00
2023-04-12T15:23:49.652Z,42.10
2023-04-12T15:26:16.172Z,43.10
2023-04-12T15:28:42.815Z,42.60
2023-04-12T15:31:09.380Z,42.80
2023-04-12T15:33:35.947Z,42.20
2023-04-12T15:36:02.429Z,42.70
2023-04-12T15:38:28.993Z,42.60
2023-04-12T15:40:55.545Z,42.00
2023-04-12T15:43:22.027Z,42.40
2023-04-12T15:45:48.545Z,42.80
2023-04-12T15:48:15.156Z,42.90
2023-04-12T15:50:41.682Z,43.50
2023-04-12T15:53:08.232Z,43.40
2023-04-12T15:55:34.798Z,43.50
2023-04-12T15:58:01.299Z,42.60
2023-04-12T16:00:27.826Z,43.10
2023-04-12T16:02:54.567Z,44.10
2023-04-12T16:05:21.343Z,43.70
2023-04-12T16:07:47.839Z,43.10
2023-04-12T16:10:14.334Z,43.10
2023-04-12T16:12:40.840Z,43.20
2023-04-12T16:15:07.371Z,43.20
2023-04-12T16:17:33.998Z,44.10
2023-04-12T16:20:00.595Z,43.70
2023-04-12T16:22:27.138Z,43.80
2023-04-12T16:24:53.618Z,44.20
2023-04-12T16:27:21.640Z,44.40
2023-04-12T16:29:49.644Z,44.40
2023-04-12T16:32:16.196Z,43.50
2023-04-12T16:34:42.739Z,43.50
2023-04-12T16:37:09.295Z,43.70
2023-04-12T16:39:35.797Z,43.10
2023-04-12T16:42:02.293Z,44.00
2023-04-12T16:44:28.751Z,43.60
2023-04-12T16:46:55.328Z,43.60
2023-04-12T16:49:21.829Z,44.20
2023-04-12T16:51:48.340Z,44.00
2023-04-12T16:56:41.962Z,43.50
2023-04-12T16:59:08.449Z,43.80
2023-04-12T17:01:34.973Z,41.50
2023-04-12T17:04:01.835Z,43.50
2023-04-12T17:06:28.662Z,44.10
2023-04-12T17:08:55.204Z,43.90
2023-04-12T17:11:21.687Z,43.00
2023-04-12T17:13:48.246Z,43.70
2023-04-12T17:16:14.751Z,44.10
2023-04-12T17:18:41.289Z,44.00
2023-04-12T17:21:07.791Z,44.00
2023-04-12T17:23:34.359Z,43.40
2023-04-12T17:26:01.258Z,43.90
2023-04-12T17:28:27.755Z,43.70
2023-04-12T17:30:54.284Z,43.30
2023-04-12T17:33:20.768Z,43.50
2023-04-12T17:35:47.265Z,44.00
2023-04-12T17:38:13.732Z,44.00
2023-04-12T17:40:40.202Z,43.90
2023-04-12T17:43:06.703Z,43.30
2023-04-12T17:45:33.263Z,43.40
2023-04-12T17:47:59.788Z,43.30
2023-04-12T17:50:26.298Z,43.30
2023-04-12T17:52:52.833Z,43.10
2023-04-12T17:55:19.293Z,43.60
2023-04-12T17:57:45.799Z,43.60
2023-04-12T18:00:12.288Z,43.70
2023-04-12T18:02:38.953Z,43.00
2023-04-12T18:05:05.597Z,42.90
2023-04-12T18:07:32.078Z,43.00
2023-04-12T18:09:58.617Z,43.10
2023-04-12T18:12:25.118Z,43.00
2023-04-12T18:14:51.648Z,42.70
2023-04-12T18:19:45.166Z,42.90
2023-04-12T18:22:11.676Z,42.60
2023-04-12T18:24:38.655Z,42.60
2023-04-12T18:27:05.255Z,43.40
2023-04-12T18:29:31.769Z,43.40
2023-04-12T18:31:58.315Z,43.10
2023-04-12T18:34:24.831Z,43.00
2023-04-12T18:36:51.325Z,43.00
2023-04-12T18:39:17.834Z,43.20
2023-04-12T18:41:44.363Z,42.90
2023-04-12T18:44:10.874Z,43.20
2023-04-12T18:49:04.491Z,43.00
2023-04-12T18:51:31.066Z,43.10
2023-04-12T18:53:57.888Z,43.30
2023-04-12T18:56:24.722Z,43.50
2023-04-12T18:58:55.553Z,43.60
2023-04-12T19:01:22.676Z,43.30
2023-04-12T19:03:49.408Z,43.10
2023-04-12T19:06:15.964Z,43.90
2023-04-12T19:11:09.637Z,43.30
2023-04-12T19:13:36.104Z,43.40
2023-04-12T19:16:02.643Z,44.20
2023-04-12T19:18:29.198Z,43.00
2023-04-12T19:20:57.545Z,43.30
2023-04-12T19:23:24.011Z,43.10
2023-04-12T19:25:50.536Z,43.40
2023-04-12T19:28:16.994Z,43.30
2023-04-12T19:30:43.540Z,43.20
2023-04-12T19:33:10.026Z,43.20
2023-04-12T19:35:36.544Z,43.40
2023-04-12T19:38:03.080Z,43.80
2023-04-12T19:40:31.135Z,43.70
2023-04-12T19:42:57.816Z,43.60
2023-04-12T19:45:24.367Z,43.20
2023-04-12T19:47:50.933Z,43.20
2023-04-12T19:50:17.489Z,43.60
2023-04-12T19:52:43.988Z,43.80
2023-04-12T19:55:10.458Z,43.90
2023-04-12T19:57:36.961Z,43.40
2023-04-12T20:00:03.432Z,43.30
2023-04-12T20:02:30.020Z,43.40
2023-04-12T20:04:56.631Z,43.60
2023-04-12T20:07:23.139Z,43.90
2023-04-12T20:09:49.662Z,43.70
2023-04-12T20:12:16.163Z,43.60
2023-04-12T20:14:42.669Z,43.70
2023-04-12T20:17:10.273Z,43.70
2023-04-12T20:19:36.808Z,43.80
2023-04-12T20:22:03.338Z,44.30
2023-04-12T20:24:29.934Z,44.30
2023-04-12T20:26:56.496Z,44.40
2023-04-12T20:29:23.045Z,43.50
2023-04-12T20:31:49.520Z,44.40
2023-04-12T20:34:15.984Z,44.00
2023-04-12T20:36:42.486Z,44.10
2023-04-12T20:39:09.040Z,44.50
2023-04-12T20:44:02.552Z,43.90
2023-04-12T20:46:29.063Z,44.50
2023-04-12T20:48:55.774Z,43.50
2023-04-12T20:51:22.425Z,43.80
2023-04-12T20:53:48.940Z,43.70
2023-04-12T20:56:15.463Z,43.90
2023-04-12T20:58:42.012Z,43.80
2023-04-12T21:01:08.532Z,43.70
2023-04-12T21:03:35.234Z,43.80
2023-04-12T21:06:01.901Z,44.20
2023-04-12T21:08:28.438Z,44.40
2023-04-12T21:10:54.939Z,44.30
2023-04-12T21:13:21.462Z,45.00
2023-04-12T21:15:47.979Z,43.60
2023-04-12T21:18:14.659Z,43.60
2023-04-12T21:20:41.203Z,44.30
2023-04-12T21:23:07.796Z,44.20
2023-04-12T21:25:34.295Z,43.80
2023-04-12T21:28:00.859Z,44.50
2023-04-12T21:30:27.360Z,43.80
2023-04-12T21:32:53.873Z,44.80
2023-04-12T21:35:20.401Z,43.60
2023-04-12T21:37:46.869Z,43.30
2023-04-12T21:40:13.423Z,44.10
2023-04-12T21:42:39.925Z,43.50
2023-04-12T21:45:06.477Z,43.50
2023-04-12T21:47:32.982Z,44.00
2023-04-12T21:49:59.486Z,43.60
2023-04-12T21:52:26.015Z,43.30
2023-04-12T21:54:52.526Z,43.40
2023-04-12T21:57:19.064Z,44.00
2023-04-12T21:59:45.554Z,43.40
2023-04-12T22:02:12.121Z,43.50
2023-04-12T22:04:38.678Z,43.50
2023-04-12T22:07:05.177Z,43.90
2023-04-12T22:09:31.664Z,43.60
2023-04-12T22:11:58.166Z,43.70
2023-04-12T22:14:24.749Z,44.00
2023-04-12T22:16:51.269Z,43.50
2023-04-12T22:21:45.411Z,43.40
2023-04-12T22:24:13.040Z,43.30
2023-04-12T22:26:39.521Z,43.70
2023-04-12T22:29:05.996Z,43.90
2023-04-12T22:33:59.913Z,43.20
2023-04-12T22:36:29.352Z,43.20
2023-04-12T22:38:56.198Z,43.40
2023-04-12T22:43:49.736Z,43.20
2023-04-12T22:46:16.477Z,43.80
2023-04-12T22:48:43.027Z,43.40
2023-04-12T22:51:09.535Z,43.80
2023-04-12T22:53:36.018Z,43.30
2023-04-12T22:56:02.496Z,43.10
2023-04-12T22:58:29.001Z,43.50
2023-04-12T23:00:55.504Z,43.20
2023-04-12T23:03:22.042Z,43.40
2023-04-12T23:05:48.589Z,43.20
2023-04-12T23:08:15.045Z,43.60
2023-04-12T23:10:41.541Z,43.30
2023-04-12T23:13:08.012Z,43.30
2023-04-12T23:15:34.521Z,43.20
2023-04-12T23:18:01.114Z,43.60
2023-04-12T23:20:27.640Z,43.60
2023-04-12T23:22:57.502Z,43.10
2023-04-12T23:27:51.635Z,43.00
2023-04-12T23:30:18.163Z,43.20
2023-04-12T23:32:44.701Z,42.90
2023-04-12T23:35:11.232Z,42.80
2023-04-12T23:37:37.768Z,42.80
2023-04-12T23:40:04.326Z,42.70
2023-04-12T23:42:30.810Z,43.30
2023-04-12T23:44:57.700Z,42.80
2023-04-12T23:47:24.160Z,43.20
2023-04-12T23:49:50.661Z,42.60
2023-04-12T23:52:17.193Z,42.30
2023-04-12T23:54:43.728Z,42.30
2023-04-12T23:57:10.256Z,42.60
2023-04-12T23:59:36.791Z,42.60
